createdAt,value
2017-08-18T00:01:06.106Z,99.90
2017-08-18T00:03:33.645Z,99.90
2017-08-18T00:06:01.985Z,99.90
2017-08-18T00:08:29.521Z,99.90
2017-08-18T00:10:57.077Z,99.90
2017-08-18T00:13:24.617Z,99.90
2017-08-18T00:15:52.174Z,99.90
2017-08-18T00:18:19.716Z,99.90
2017-08-18T00:20:48.049Z,99.90
2017-08-18T00:23:15.593Z,99.90
2017-08-18T00:25:43.144Z,99.90
2017-08-18T00:28:10.727Z,99.90
2017-08-18T00:30:38.275Z,99.90
2017-08-18T00:33:05.818Z,99.90
2017-08-18T00:35:33.368Z,99.90
2017-08-18T00:38:01.695Z,99.90
2017-08-18T00:40:29.240Z,99.90
2017-08-18T00:42:56.802Z,99.90
2017-08-18T00:45:24.357Z,99.90
2017-08-18T00:47:51.898Z,99.90
2017-08-18T00:50:19.430Z,99.90
2017-08-18T00:52:47.781Z,99.90
2017-08-18T00:55:15.320Z,99.90
2017-08-18T00:57:42.882Z,99.90
2017-08-18T01:00:10.417Z,99.90
2017-08-18T01:02:37.997Z,99.90
2017-08-18T01:05:05.554Z,99.90
2017-08-18T01:07:33.115Z,99.90
2017-08-18T01:10:00.656Z,99.90
2017-08-18T01:12:28.189Z,99.90
2017-08-18T01:14:56.516Z,99.90
2017-08-18T01:17:24.064Z,99.90
2017-08-18T01:19:51.622Z,99.90
2017-08-18T01:22:19.168Z,99.90
2017-08-18T01:24:46.716Z,99.90
2017-08-18T01:27:15.017Z,99.90
2017-08-18T01:29:42.545Z,99.90
2017-08-18T01:32:10.877Z,99.90
2017-08-18T01:34:38.413Z,99.90
2017-08-18T01:37:05.969Z,99.90
2017-08-18T01:39:33.562Z,99.90
2017-08-18T01:42:01.094Z,99.90
2017-08-18T01:44:28.630Z,99.90
2017-08-18T01:46:57.481Z,99.90
2017-08-18T01:49:25.015Z,99.90
2017-08-18T01:51:52.569Z,99.90
2017-08-18T01:54:20.105Z,99.90
2017-08-18T01:56:47.653Z,99.90
2017-08-18T01:59:15.992Z,99.90
2017-08-18T02:01:43.546Z,99.90
2017-08-18T02:04:11.072Z,99.90
2017-08-18T02:06:38.632Z,99.90
2017-08-18T02:09:06.176Z,99.90
2017-08-18T02:11:34.478Z,99.90
2017-08-18T02:14:02.044Z,99.90
2017-08-18T02:16:29.619Z,99.90
2017-08-18T02:18:57.154Z,99.90
2017-08-18T02:21:24.704Z,99.90
2017-08-18T02:23:52.258Z,99.90
2017-08-18T02:26:19.818Z,99.90
2017-08-18T02:28:47.352Z,99.90
2017-08-18T02:31:15.650Z,99.90
2017-08-18T02:33:43.205Z,99.90
2017-08-18T02:36:10.766Z,99.90
2017-08-18T02:38:39.070Z,99.90
2017-08-18T02:41:06.597Z,99.90
2017-08-18T02:43:34.917Z,99.90
2017-08-18T02:46:02.449Z,99.90
2017-08-18T02:48:30.009Z,99.90
2017-08-18T02:50:57.559Z,99.90
2017-08-18T02:53:25.866Z,99.90
2017-08-18T02:55:53.393Z,99.90
2017-08-18T02:58:20.934Z,99.90
2017-08-18T03:00:48.509Z,99.90
2017-08-18T03:03:16.818Z,99.90
2017-08-18T03:05:44.349Z,99.90
2017-08-18T03:08:11.899Z,99.90
2017-08-18T03:10:39.442Z,99.90
2017-08-18T03:13:07.008Z,99.90
2017-08-18T03:15:35.338Z,99.90
2017-08-18T03:18:02.881Z,99.90
2017-08-18T03:20:30.425Z,99.90
2017-08-18T03:22:57.959Z,99.90
2017-08-18T03:25:25.505Z,99.90
2017-08-18T03:27:53.038Z,99.90
2017-08-18T03:30:20.642Z,99.90
2017-08-18T03:32:48.170Z,99.90
2017-08-18T03:35:15.822Z,99.90
2017-08-18T03:37:43.382Z,99.90
2017-08-18T03:40:10.945Z,99.90
2017-08-18T03:42:38.476Z,99.90
2017-08-18T03:45:06.009Z,99.90
2017-08-18T03:47:34.325Z,99.90
2017-08-18T03:50:01.932Z,99.90
2017-08-18T03:52:29.489Z,99.90
2017-08-18T03:54:57.049Z,99.90
2017-08-18T03:57:24.583Z,99.90
2017-08-18T03:59:52.113Z,99.90
2017-08-18T04:02:19.674Z,99.90
2017-08-18T04:04:47.205Z,99.90
2017-08-18T04:07:14.734Z,99.90
2017-08-18T04:09:42.302Z,99.90
2017-08-18T04:12:09.840Z,99.90
2017-08-18T04:14:37.374Z,99.90
2017-08-18T04:17:04.941Z,99.90
2017-08-18T04:19:32.473Z,99.90
2017-08-18T04:22:00.777Z,99.90
2017-08-18T04:24:28.343Z,99.90
2017-08-18T04:26:55.883Z,99.90
2017-08-18T04:29:23.440Z,99.90
2017-08-18T04:31:50.983Z,99.90
2017-08-18T04:34:19.302Z,99.90
2017-08-18T04:36:46.826Z,99.90
2017-08-18T04:39:15.131Z,99.90
2017-08-18T04:41:42.703Z,99.90
2017-08-18T04:44:10.231Z,99.90
2017-08-18T04:46:38.545Z,99.90
2017-08-18T04:49:06.073Z,99.90
2017-08-18T04:51:33.632Z,99.90
2017-08-18T04:54:01.166Z,99.90
2017-08-18T04:56:28.700Z,99.90
2017-08-18T04:58:56.253Z,99.90
2017-08-18T05:01:23.788Z,99.90
2017-08-18T05:03:51.344Z,99.90
2017-08-18T05:06:18.876Z,99.90
2017-08-18T05:08:47.197Z,99.90
2017-08-18T05:11:14.721Z,99.90
2017-08-18T05:13:43.021Z,99.90
2017-08-18T05:16:10.573Z,99.90
2017-08-18T05:18:38.116Z,99.90
2017-08-18T05:21:06.432Z,99.90
2017-08-18T05:23:33.965Z,99.90
2017-08-18T05:26:01.501Z,99.90
2017-08-18T05:28:29.062Z,99.90
2017-08-18T05:30:57.368Z,99.90
2017-08-18T05:33:24.901Z,99.90
2017-08-18T05:35:53.219Z,99.90
2017-08-18T05:38:20.760Z,99.90
2017-08-18T05:40:48.289Z,99.90
2017-08-18T05:43:16.641Z,99.90
2017-08-18T05:45:44.192Z,99.90
2017-08-18T05:48:11.745Z,99.90
2017-08-18T05:50:39.283Z,99.90
2017-08-18T05:53:06.841Z,99.90
2017-08-18T05:55:34.393Z,99.90
2017-08-18T05:58:01.958Z,99.90
2017-08-18T06:00:29.492Z,99.90
2017-08-18T06:02:57.806Z,99.90
2017-08-18T06:05:25.362Z,99.90
2017-08-18T06:07:52.893Z,99.90
2017-08-18T06:10:20.451Z,99.90
2017-08-18T06:12:48.758Z,99.90
2017-08-18T06:15:16.293Z,99.90
2017-08-18T06:17:44.615Z,99.90
2017-08-18T06:20:12.152Z,99.90
2017-08-18T06:22:39.690Z,99.90
2017-08-18T06:25:07.252Z,99.90
2017-08-18T06:27:34.803Z,99.90
2017-08-18T06:30:03.101Z,99.90
2017-08-18T06:32:30.707Z,99.90
2017-08-18T06:34:58.257Z,99.90
2017-08-18T06:37:25.845Z,99.90
2017-08-18T06:39:53.377Z,99.90
2017-08-18T06:42:20.910Z,99.90
2017-08-18T06:44:48.465Z,99.90
2017-08-18T06:47:16.013Z,97.40
2017-08-18T06:49:43.562Z,96.20
2017-08-18T06:52:11.869Z,97.10
2017-08-18T06:54:39.429Z,97.10
2017-08-18T06:57:06.956Z,97.60
2017-08-18T06:59:35.327Z,99.60
2017-08-18T07:02:02.917Z,99.30
2017-08-18T07:04:30.454Z,99.90
2017-08-18T07:06:58.787Z,99.90
2017-08-18T07:09:26.329Z,99.90
2017-08-18T07:11:53.864Z,99.90
2017-08-18T07:14:22.193Z,99.90
2017-08-18T07:16:49.726Z,99.90
2017-08-18T07:19:17.277Z,98.60
2017-08-18T07:21:44.817Z,99.40
2017-08-18T07:24:13.122Z,99.90
2017-08-18T07:26:40.700Z,99.90
2017-08-18T07:29:08.232Z,99.90
2017-08-18T07:31:36.401Z,99.90
2017-08-18T07:34:03.933Z,99.80
2017-08-18T07:36:32.288Z,99.90
2017-08-18T07:38:59.814Z,99.60
2017-08-18T07:41:27.354Z,99.20
2017-08-18T07:43:54.915Z,99.50
2017-08-18T07:46:22.454Z,98.20
2017-08-18T07:48:50.763Z,95.90
2017-08-18T07:51:18.323Z,95.90
2017-08-18T07:53:46.495Z,93.50
2017-08-18T07:56:14.069Z,94.90
2017-08-18T07:58:41.594Z,95.00
2017-08-18T08:01:09.901Z,94.50
2017-08-18T08:03:37.437Z,94.50
2017-08-18T08:06:04.981Z,94.70
2017-08-18T08:08:33.305Z,92.60
2017-08-18T08:11:00.851Z,92.60
2017-08-18T08:13:28.418Z,86.80
2017-08-18T08:15:55.961Z,78.90
2017-08-18T08:18:23.512Z,75.70
2017-08-18T08:20:51.046Z,77.80
2017-08-18T08:23:18.573Z,80.50
2017-08-18T08:25:46.128Z,83.90
2017-08-18T08:28:13.645Z,81.90
2017-08-18T08:30:41.967Z,75.10
2017-08-18T08:33:09.518Z,75.20
2017-08-18T08:35:37.104Z,73.40
2017-08-18T08:38:04.642Z,75.10
2017-08-18T08:40:32.178Z,75.30
2017-08-18T08:42:59.732Z,72.00
2017-08-18T08:45:27.291Z,69.10
2017-08-18T08:47:54.834Z,69.70
2017-08-18T08:50:23.151Z,72.10
2017-08-18T08:52:50.682Z,72.00
2017-08-18T08:55:18.231Z,73.40
2017-08-18T08:57:46.528Z,67.80
2017-08-18T09:00:14.049Z,67.70
2017-08-18T09:02:41.665Z,62.40
2017-08-18T09:05:09.200Z,61.30
2017-08-18T09:07:37.496Z,62.30
2017-08-18T09:10:05.029Z,62.20
2017-08-18T09:12:33.346Z,63.40
2017-08-18T09:15:00.921Z,63.20
2017-08-18T09:17:28.477Z,60.60
2017-08-18T09:19:56.025Z,59.70
2017-08-18T09:22:23.554Z,58.00
2017-08-18T09:24:51.140Z,55.10
2017-08-18T09:27:18.666Z,56.60
2017-08-18T09:29:46.254Z,56.00
2017-08-18T09:32:13.788Z,54.10
2017-08-18T09:34:42.105Z,55.10
2017-08-18T09:37:09.660Z,55.20
2017-08-18T09:39:37.204Z,54.70
2017-08-18T09:42:04.762Z,55.10
2017-08-18T09:44:32.313Z,53.20
2017-08-18T09:46:59.869Z,54.10
2017-08-18T09:49:40.182Z,52.40
2017-08-18T10:05:47.987Z,51.80
2017-08-18T10:08:15.509Z,49.20
2017-08-18T10:10:43.085Z,48.80
2017-08-18T10:13:10.629Z,48.90
2017-08-18T10:15:38.156Z,49.20
2017-08-18T10:18:06.469Z,44.40
2017-08-18T10:20:34.012Z,44.30
2017-08-18T10:23:01.566Z,41.80
2017-08-18T10:25:29.113Z,43.50
2017-08-18T10:27:57.423Z,43.40
2017-08-18T10:30:24.979Z,43.30
2017-08-18T10:32:52.523Z,42.30
2017-08-18T10:35:20.086Z,41.10
2017-08-18T10:37:47.625Z,40.10
2017-08-18T10:40:15.981Z,40.20
2017-08-18T10:42:43.512Z,40.10
2017-08-18T10:45:11.091Z,40.80
2017-08-18T10:47:38.662Z,40.00
2017-08-18T10:50:06.202Z,42.40
2017-08-18T10:52:33.748Z,41.70
2017-08-18T10:55:01.308Z,44.00
2017-08-18T10:57:28.965Z,42.80
2017-08-18T10:59:56.510Z,42.50
2017-08-18T11:02:24.068Z,42.10
2017-08-18T11:04:51.627Z,45.00
2017-08-18T11:07:19.165Z,48.10
2017-08-18T11:09:47.474Z,53.30
2017-08-18T11:12:15.025Z,53.30
2017-08-18T11:14:42.601Z,51.80
2017-08-18T11:17:10.166Z,53.90
2017-08-18T11:19:37.691Z,52.40
2017-08-18T11:22:05.226Z,52.30
2017-08-18T11:24:32.786Z,52.20
2017-08-18T11:27:01.104Z,48.90
2017-08-18T11:29:28.657Z,48.90
2017-08-18T11:31:56.209Z,50.10
2017-08-18T11:34:23.745Z,51.50
2017-08-18T11:36:52.062Z,51.40
2017-08-18T11:39:19.585Z,51.30
2017-08-18T11:41:47.902Z,54.80
2017-08-18T11:44:15.434Z,54.90
2017-08-18T11:46:43.974Z,53.60
2017-08-18T11:49:11.533Z,53.50
2017-08-18T11:51:39.072Z,53.30
2017-08-18T11:54:06.612Z,50.50
2017-08-18T11:56:34.138Z,52.60
2017-08-18T11:59:02.451Z,52.70
2017-08-18T12:01:30.010Z,52.70
2017-08-18T12:03:57.550Z,56.80
2017-08-18T12:06:25.881Z,54.70
2017-08-18T12:08:53.436Z,54.70
2017-08-18T12:11:21.025Z,54.30
2017-08-18T12:13:48.589Z,51.90
2017-08-18T12:16:16.888Z,53.20
2017-08-18T12:18:45.199Z,54.90
2017-08-18T12:21:12.731Z,54.90
2017-08-18T12:23:40.267Z,54.30
2017-08-18T12:26:07.856Z,54.60
2017-08-18T12:28:35.395Z,54.80
2017-08-18T12:31:03.703Z,53.70
2017-08-18T12:33:31.236Z,53.70
2017-08-18T12:35:59.559Z,54.80
2017-08-18T12:38:27.101Z,54.80
2017-08-18T12:40:54.634Z,55.50
2017-08-18T12:43:22.948Z,55.50
2017-08-18T12:45:50.479Z,55.40
2017-08-18T12:48:18.022Z,54.40
2017-08-18T12:50:46.358Z,55.60
2017-08-18T12:53:13.904Z,55.60
2017-08-18T12:55:41.464Z,56.30
2017-08-18T12:58:08.992Z,54.70
2017-08-18T13:00:37.303Z,55.20
2017-08-18T13:03:04.830Z,55.20
2017-08-18T13:05:32.394Z,54.60
2017-08-18T13:07:59.925Z,53.10
2017-08-18T13:10:27.457Z,51.20
2017-08-18T13:12:55.052Z,52.70
2017-08-18T13:15:22.624Z,52.60
2017-08-18T13:17:50.953Z,54.10
2017-08-18T13:20:18.500Z,54.00
2017-08-18T13:22:46.643Z,55.50
2017-08-18T13:25:14.185Z,57.40
2017-08-18T13:27:42.480Z,57.90
2017-08-18T13:30:10.034Z,57.20
2017-08-18T13:32:38.326Z,55.10
2017-08-18T13:35:05.905Z,55.30
2017-08-18T13:37:33.446Z,53.60
2017-08-18T13:40:00.993Z,53.80
2017-08-18T13:42:28.555Z,54.00
2017-08-18T13:44:56.125Z,55.80
2017-08-18T13:47:23.653Z,54.50
2017-08-18T13:49:51.993Z,55.60
2017-08-18T13:52:19.522Z,55.30
2017-08-18T13:54:47.085Z,54.30
2017-08-18T13:57:14.624Z,54.60
2017-08-18T13:59:42.950Z,53.80
2017-08-18T14:02:10.513Z,53.90
2017-08-18T14:04:38.041Z,54.00
2017-08-18T14:07:05.564Z,53.90
2017-08-18T14:09:33.157Z,54.50
2017-08-18T14:12:00.701Z,52.40
2017-08-18T14:14:29.666Z,52.50
2017-08-18T14:16:57.222Z,52.60
2017-08-18T14:19:24.754Z,51.50
2017-08-18T14:21:52.284Z,51.70
2017-08-18T14:24:19.844Z,52.10
2017-08-18T14:26:53.002Z,51.20
2017-08-18T14:29:20.543Z,51.30
2017-08-18T14:31:48.076Z,53.00
2017-08-18T14:34:15.767Z,52.10
2017-08-18T14:36:43.293Z,52.70
2017-08-18T14:39:10.861Z,52.50
2017-08-18T14:41:38.409Z,52.40
2017-08-18T14:44:05.949Z,53.60
2017-08-18T14:46:33.510Z,53.50
2017-08-18T14:49:01.849Z,53.30
2017-08-18T14:51:29.412Z,53.20
2017-08-18T14:53:56.941Z,52.90
2017-08-18T14:56:24.498Z,52.60
2017-08-18T14:58:52.045Z,55.00
2017-08-18T15:01:19.577Z,57.90
2017-08-18T15:03:47.908Z,59.80
2017-08-18T15:06:15.428Z,59.80
2017-08-18T15:08:42.972Z,61.70
2017-08-18T15:11:11.432Z,65.10
2017-08-18T15:13:39.745Z,66.50
2017-08-18T15:16:07.289Z,66.50
2017-08-18T15:18:35.586Z,70.20
2017-08-18T15:21:03.137Z,70.20
2017-08-18T15:23:30.731Z,71.50
2017-08-18T15:25:58.260Z,73.30
2017-08-18T15:28:25.811Z,74.60
2017-08-18T15:30:54.112Z,78.80
2017-08-18T15:33:21.687Z,78.80
2017-08-18T15:35:49.225Z,81.70
2017-08-18T15:38:16.761Z,90.00
2017-08-18T15:40:45.103Z,98.50
2017-08-18T15:43:12.649Z,98.90
2017-08-18T15:45:40.198Z,99.90
2017-08-18T15:48:07.749Z,99.90
2017-08-18T15:50:35.285Z,99.90
2017-08-18T15:53:03.574Z,99.90
2017-08-18T15:55:31.169Z,99.90
2017-08-18T15:57:58.706Z,99.90
2017-08-18T16:00:26.264Z,99.90
2017-08-18T16:02:53.805Z,99.90
2017-08-18T16:05:21.330Z,99.90
2017-08-18T16:07:48.874Z,99.90
2017-08-18T16:10:16.465Z,99.90
2017-08-18T16:12:44.004Z,99.90
2017-08-18T16:15:11.569Z,99.90
2017-08-18T16:17:39.125Z,99.90
2017-08-18T16:20:06.684Z,99.90
2017-08-18T16:22:34.249Z,99.90
2017-08-18T16:25:01.795Z,99.90
2017-08-18T16:27:29.347Z,99.90
2017-08-18T16:29:56.905Z,99.90
2017-08-18T16:32:24.443Z,99.90
2017-08-18T16:34:51.977Z,99.90
2017-08-18T16:37:20.296Z,99.90
2017-08-18T16:39:47.837Z,99.90
2017-08-18T16:42:15.371Z,99.90
2017-08-18T16:44:43.689Z,99.90
2017-08-18T16:47:11.242Z,99.90
2017-08-18T16:49:38.817Z,99.90
2017-08-18T16:52:06.367Z,99.90
2017-08-18T16:54:33.913Z,99.90
2017-08-18T16:57:01.445Z,99.90
2017-08-18T16:59:29.770Z,99.90
2017-08-18T17:01:57.310Z,99.90
2017-08-18T17:04:24.842Z,99.90
2017-08-18T17:06:53.164Z,99.90
2017-08-18T17:09:20.708Z,99.90
2017-08-18T17:11:48.273Z,99.90
2017-08-18T17:14:15.843Z,99.90
2017-08-18T17:16:43.397Z,99.90
2017-08-18T17:19:10.954Z,99.90
2017-08-18T17:21:38.489Z,99.90
2017-08-18T17:24:06.049Z,99.90
2017-08-18T17:26:33.589Z,99.90
2017-08-18T17:29:01.899Z,99.90
2017-08-18T17:31:29.459Z,99.90
2017-08-18T17:33:57.006Z,99.90
2017-08-18T17:36:24.579Z,99.90
2017-08-18T17:38:52.112Z,99.90
2017-08-18T17:41:19.681Z,99.90
2017-08-18T17:43:47.234Z,99.90
2017-08-18T17:46:15.526Z,99.90
2017-08-18T17:48:43.096Z,99.90
2017-08-18T17:51:10.639Z,99.90
2017-08-18T17:53:38.956Z,99.90
2017-08-18T17:56:06.489Z,99.90
2017-08-18T17:58:34.020Z,99.90
2017-08-18T18:01:02.357Z,99.90
2017-08-18T18:03:29.898Z,99.90
2017-08-18T18:05:57.458Z,99.90
2017-08-18T18:08:25.106Z,99.90
2017-08-18T18:10:52.657Z,99.90
2017-08-18T18:13:20.202Z,99.90
2017-08-18T18:15:48.494Z,99.90
2017-08-18T18:18:16.117Z,99.90
2017-08-18T18:20:43.648Z,99.90
2017-08-18T18:23:11.168Z,99.90
2017-08-18T18:25:39.488Z,99.90
2017-08-18T18:28:07.022Z,99.90
2017-08-18T18:30:34.581Z,99.90
2017-08-18T18:33:02.105Z,99.90
2017-08-18T18:35:30.420Z,99.90
2017-08-18T18:37:57.953Z,99.90
2017-08-18T18:40:26.258Z,99.90
2017-08-18T18:42:53.818Z,99.90
2017-08-18T18:45:21.394Z,99.90
2017-08-18T18:47:48.953Z,99.90
2017-08-18T18:50:16.511Z,99.90
2017-08-18T18:52:44.066Z,99.90
2017-08-18T18:55:11.636Z,99.90
2017-08-18T18:57:39.178Z,99.90
2017-08-18T19:00:06.758Z,99.90
2017-08-18T19:02:34.282Z,99.90
2017-08-18T19:05:01.828Z,99.90
2017-08-18T19:07:30.165Z,99.90
2017-08-18T19:09:57.709Z,99.90
2017-08-18T19:12:25.236Z,99.90
2017-08-18T19:14:52.790Z,99.90
2017-08-18T19:17:20.320Z,99.90
2017-08-18T19:19:47.900Z,99.90
2017-08-18T19:22:16.214Z,99.90
2017-08-18T19:24:43.737Z,99.90
2017-08-18T19:27:12.036Z,99.90
2017-08-18T19:29:39.597Z,99.90
2017-08-18T19:32:07.135Z,99.90
2017-08-18T19:34:34.684Z,99.90
2017-08-18T19:37:02.258Z,99.90
2017-08-18T19:39:30.576Z,99.90
2017-08-18T19:41:58.145Z,99.90
2017-08-18T19:44:25.691Z,99.90
2017-08-18T19:46:53.249Z,99.90
2017-08-18T19:49:20.781Z,99.90
2017-08-18T19:51:49.096Z,99.90
2017-08-18T19:54:16.633Z,99.90
2017-08-18T19:56:44.170Z,99.90
2017-08-18T19:59:12.488Z,99.90
2017-08-18T20:01:40.013Z,99.90
2017-08-18T20:04:08.349Z,99.90
2017-08-18T20:06:35.887Z,99.90
2017-08-18T20:09:03.437Z,99.90
2017-08-18T20:11:30.962Z,99.90
2017-08-18T20:13:59.285Z,99.90
2017-08-18T20:16:26.853Z,99.90
2017-08-18T20:18:54.386Z,99.90
2017-08-18T20:21:21.944Z,99.90
2017-08-18T20:23:49.473Z,99.90
2017-08-18T20:26:17.781Z,99.90
2017-08-18T20:28:45.340Z,99.90
2017-08-18T20:31:12.879Z,99.90
2017-08-18T20:33:41.204Z,99.90
2017-08-18T20:36:08.746Z,99.90
2017-08-18T20:38:36.279Z,99.90
2017-08-18T20:41:03.838Z,99.90
2017-08-18T20:43:32.131Z,99.90
2017-08-18T20:45:59.685Z,99.90
2017-08-18T20:48:27.293Z,99.90
2017-08-18T20:50:54.833Z,99.90
2017-08-18T20:53:22.394Z,99.90
2017-08-18T20:55:49.926Z,99.90
2017-08-18T20:58:17.481Z,99.90
2017-08-18T21:00:45.020Z,99.90
2017-08-18T21:03:12.576Z,99.90
2017-08-18T21:05:40.129Z,99.90
2017-08-18T21:08:07.682Z,99.90
2017-08-18T21:10:35.243Z,99.90
2017-08-18T21:13:02.788Z,99.90
2017-08-18T21:15:30.317Z,99.90
2017-08-18T21:17:57.869Z,99.90
2017-08-18T21:20:25.412Z,99.90
2017-08-18T21:22:52.948Z,99.90
2017-08-18T21:25:20.505Z,99.90
2017-08-18T21:27:48.039Z,99.90
2017-08-18T21:30:15.603Z,99.90
2017-08-18T21:32:43.141Z,99.90
2017-08-18T21:35:10.701Z,99.90
2017-08-18T21:37:38.252Z,99.90
2017-08-18T21:40:05.823Z,99.90
2017-08-18T21:42:33.366Z,99.90
2017-08-18T21:45:00.898Z,99.90
2017-08-18T21:47:29.213Z,99.90
2017-08-18T21:49:56.797Z,99.90
2017-08-18T21:52:24.328Z,99.90
2017-08-18T21:54:51.902Z,99.90
2017-08-18T21:57:19.441Z,99.90
2017-08-18T21:59:46.977Z,99.90
2017-08-18T22:02:15.299Z,99.90
2017-08-18T22:04:42.849Z,99.90
2017-08-18T22:07:10.434Z,99.90
2017-08-18T22:09:37.973Z,99.90
2017-08-18T22:12:05.505Z,99.90
2017-08-18T22:14:33.815Z,99.90
2017-08-18T22:17:01.355Z,99.90
2017-08-18T22:19:28.909Z,99.90
2017-08-18T22:21:56.441Z,99.90
2017-08-18T22:24:24.767Z,99.90
2017-08-18T22:26:52.339Z,99.90
2017-08-18T22:29:19.873Z,99.90
2017-08-18T22:31:47.861Z,99.90
2017-08-18T22:34:15.453Z,99.90
2017-08-18T22:36:42.984Z,99.90
2017-08-18T22:39:10.528Z,99.90
2017-08-18T22:41:38.054Z,99.90
2017-08-18T22:44:06.400Z,99.90
2017-08-18T22:46:33.935Z,99.90
2017-08-18T22:49:01.460Z,99.90
2017-08-18T22:51:29.781Z,99.90
2017-08-18T22:53:57.342Z,99.90
2017-08-18T22:56:24.893Z,99.90
2017-08-18T22:58:52.433Z,99.90
2017-08-18T23:01:19.987Z,99.90
2017-08-18T23:03:47.537Z,99.90
2017-08-18T23:06:15.837Z,99.90
2017-08-18T23:08:43.393Z,99.90
2017-08-18T23:11:10.918Z,99.90
2017-08-18T23:13:39.248Z,99.90
2017-08-18T23:16:06.825Z,99.90
2017-08-18T23:18:34.357Z,99.90
2017-08-18T23:21:01.942Z,99.90
2017-08-18T23:23:29.501Z,99.90
2017-08-18T23:25:57.025Z,99.90
2017-08-18T23:28:24.552Z,99.90
2017-08-18T23:30:52.117Z,99.90
2017-08-18T23:33:20.444Z,99.90
2017-08-18T23:35:47.982Z,99.90
2017-08-18T23:38:15.522Z,99.90
2017-08-18T23:40:43.845Z,99.90
2017-08-18T23:43:11.384Z,99.90
2017-08-18T23:45:38.921Z,99.90
2017-08-18T23:48:07.235Z,99.90
2017-08-18T23:50:34.761Z,99.90
2017-08-18T23:53:03.072Z,99.90
2017-08-18T23:55:30.594Z,99.90
2017-08-18T23:57:58.905Z,99.90
